sensor_id;sensor_type;location;lat;lon;timestamp;temperature;humidity
6307;DHT22;3186;54.062;9.962;2023-12-22T00:00:12;5.00;99.90
6307;DHT22;3186;54.062;9.962;2023-12-22T00:02:38;5.10;99.90
6307;DHT22;3186;54.062;9.962;2023-12-22T00:05:04;5.10;99.90
6307;DHT22;3186;54.062;9.962;2023-12-22T00:07:29;5.00;99.90
6307;DHT22;3186;54.062;9.962;2023-12-22T00:09:55;5.00;99.90
6307;DHT22;3186;54.062;9.962;2023-12-22T00:12:21;5.00;99.90
6307;DHT22;3186;54.062;9.962;2023-12-22T00:14:47;5.00;99.90
6307;DHT22;3186;54.062;9.962;2023-12-22T00:17:12;5.00;99.90
6307;DHT22;3186;54.062;9.962;2023-12-22T00:19:38;5.00;97.50
6307;DHT22;3186;54.062;9.962;2023-12-22T00:22:04;4.90;94.80
6307;DHT22;3186;54.062;9.962;2023-12-22T00:24:30;5.00;99.90
6307;DHT22;3186;54.062;9.962;2023-12-22T00:26:55;5.00;99.90
6307;DHT22;3186;54.062;9.962;2023-12-22T00:29:21;5.00;99.90
6307;DHT22;3186;54.062;9.962;2023-12-22T00:31:46;4.90;99.90
6307;DHT22;3186;54.062;9.962;2023-12-22T00:34:12;5.00;99.90
6307;DHT22;3186;54.062;9.962;2023-12-22T00:36:38;5.00;99.90
6307;DHT22;3186;54.062;9.962;2023-12-22T00:39:03;5.00;99.90
6307;DHT22;3186;54.062;9.962;2023-12-22T00:41:29;4.90;99.90
6307;DHT22;3186;54.062;9.962;2023-12-22T00:43:55;5.00;99.90
6307;DHT22;3186;54.062;9.962;2023-12-22T00:46:20;5.00;99.90
6307;DHT22;3186;54.062;9.962;2023-12-22T00:48:46;5.00;99.90
6307;DHT22;3186;54.062;9.962;2023-12-22T00:51:12;5.00;99.90
6307;DHT22;3186;54.062;9.962;2023-12-22T00:53:37;5.00;99.90
6307;DHT22;3186;54.062;9.962;2023-12-22T00:56:03;5.10;99.90
6307;DHT22;3186;54.062;9.962;2023-12-22T00:58:30;5.00;99.90
6307;DHT22;3186;54.062;9.962;2023-12-22T01:00:55;4.90;99.90
6307;DHT22;3186;54.062;9.962;2023-12-22T01:03:21;5.00;99.90
6307;DHT22;3186;54.062;9.962;2023-12-22T01:05:47;4.90;99.90
6307;DHT22;3186;54.062;9.962;2023-12-22T01:08:13;5.00;99.90
6307;DHT22;3186;54.062;9.962;2023-12-22T01:10:38;5.00;99.90
6307;DHT22;3186;54.062;9.962;2023-12-22T01:13:04;5.00;99.90
6307;DHT22;3186;54.062;9.962;2023-12-22T01:15:30;5.00;99.90
6307;DHT22;3186;54.062;9.962;2023-12-22T01:17:55;5.00;99.90
6307;DHT22;3186;54.062;9.962;2023-12-22T01:20:21;5.00;99.90
6307;DHT22;3186;54.062;9.962;2023-12-22T01:22:46;5.00;99.90
6307;DHT22;3186;54.062;9.962;2023-12-22T01:25:12;5.10;99.90
6307;DHT22;3186;54.062;9.962;2023-12-22T01:27:37;5.00;99.90
6307;DHT22;3186;54.062;9.962;2023-12-22T01:30:03;5.00;99.90
6307;DHT22;3186;54.062;9.962;2023-12-22T01:32:29;5.00;99.90
6307;DHT22;3186;54.062;9.962;2023-12-22T01:35:00;4.90;99.90
6307;DHT22;3186;54.062;9.962;2023-12-22T01:37:29;5.00;99.90
6307;DHT22;3186;54.062;9.962;2023-12-22T01:39:55;5.00;99.90
6307;DHT22;3186;54.062;9.962;2023-12-22T01:42:21;5.00;99.90
6307;DHT22;3186;54.062;9.962;2023-12-22T01:44:46;5.00;99.90
6307;DHT22;3186;54.062;9.962;2023-12-22T01:47:12;5.10;99.90
6307;DHT22;3186;54.062;9.962;2023-12-22T01:49:38;5.00;99.90
6307;DHT22;3186;54.062;9.962;2023-12-22T01:52:04;5.00;99.90
6307;DHT22;3186;54.062;9.962;2023-12-22T01:54:30;5.00;99.90
6307;DHT22;3186;54.062;9.962;2023-12-22T01:56:57;5.00;99.90
6307;DHT22;3186;54.062;9.962;2023-12-22T01:59:23;4.90;99.90
6307;DHT22;3186;54.062;9.962;2023-12-22T02:01:48;4.90;99.90
6307;DHT22;3186;54.062;9.962;2023-12-22T02:04:15;4.80;99.90
6307;DHT22;3186;54.062;9.962;2023-12-22T02:06:41;4.80;99.90
6307;DHT22;3186;54.062;9.962;2023-12-22T02:09:08;4.80;99.90
6307;DHT22;3186;54.062;9.962;2023-12-22T02:11:33;4.70;99.90
6307;DHT22;3186;54.062;9.962;2023-12-22T02:13:59;4.70;99.90
6307;DHT22;3186;54.062;9.962;2023-12-22T02:16:42;4.70;99.90
6307;DHT22;3186;54.062;9.962;2023-12-22T02:22:08;4.70;99.90
6307;DHT22;3186;54.062;9.962;2023-12-22T02:24:34;4.60;99.90
6307;DHT22;3186;54.062;9.962;2023-12-22T02:27:04;4.60;99.90
6307;DHT22;3186;54.062;9.962;2023-12-22T02:29:37;4.60;99.90
6307;DHT22;3186;54.062;9.962;2023-12-22T02:32:07;4.60;99.90
6307;DHT22;3186;54.062;9.962;2023-12-22T02:34:36;4.60;99.90
6307;DHT22;3186;54.062;9.962;2023-12-22T02:37:08;4.60;99.90
6307;DHT22;3186;54.062;9.962;2023-12-22T02:39:35;4.70;99.90
6307;DHT22;3186;54.062;9.962;2023-12-22T02:42:02;4.50;99.90
6307;DHT22;3186;54.062;9.962;2023-12-22T02:44:28;4.30;99.90
6307;DHT22;3186;54.062;9.962;2023-12-22T02:46:53;4.30;99.90
6307;DHT22;3186;54.062;9.962;2023-12-22T02:49:19;4.30;99.90
6307;DHT22;3186;54.062;9.962;2023-12-22T02:51:45;4.10;99.90
6307;DHT22;3186;54.062;9.962;2023-12-22T02:54:10;4.20;99.90
6307;DHT22;3186;54.062;9.962;2023-12-22T02:56:36;4.20;99.90
6307;DHT22;3186;54.062;9.962;2023-12-22T02:59:02;4.30;99.90
6307;DHT22;3186;54.062;9.962;2023-12-22T03:01:27;4.30;99.90
6307;DHT22;3186;54.062;9.962;2023-12-22T03:03:53;4.20;99.90
6307;DHT22;3186;54.062;9.962;2023-12-22T03:06:18;4.30;99.90
6307;DHT22;3186;54.062;9.962;2023-12-22T03:08:44;4.20;99.90
6307;DHT22;3186;54.062;9.962;2023-12-22T03:11:09;4.20;99.90
6307;DHT22;3186;54.062;9.962;2023-12-22T03:13:35;4.20;99.90
6307;DHT22;3186;54.062;9.962;2023-12-22T03:16:01;4.20;99.90
6307;DHT22;3186;54.062;9.962;2023-12-22T03:18:26;4.10;99.90
6307;DHT22;3186;54.062;9.962;2023-12-22T03:20:52;4.10;99.90
6307;DHT22;3186;54.062;9.962;2023-12-22T03:23:17;4.00;99.90
6307;DHT22;3186;54.062;9.962;2023-12-22T03:29:23;4.10;99.90
6307;DHT22;3186;54.062;9.962;2023-12-22T03:31:49;4.20;99.90
6307;DHT22;3186;54.062;9.962;2023-12-22T03:34:15;4.10;99.90
6307;DHT22;3186;54.062;9.962;2023-12-22T03:36:40;4.10;99.90
6307;DHT22;3186;54.062;9.962;2023-12-22T03:39:06;4.20;99.90
6307;DHT22;3186;54.062;9.962;2023-12-22T03:41:32;4.10;99.90
6307;DHT22;3186;54.062;9.962;2023-12-22T03:43:58;4.10;99.90
6307;DHT22;3186;54.062;9.962;2023-12-22T03:46:24;4.00;99.90
6307;DHT22;3186;54.062;9.962;2023-12-22T03:48:52;4.10;99.90
6307;DHT22;3186;54.062;9.962;2023-12-22T03:51:18;4.10;99.90
6307;DHT22;3186;54.062;9.962;2023-12-22T03:53:44;4.10;99.90
6307;DHT22;3186;54.062;9.962;2023-12-22T03:56:10;4.00;99.90
6307;DHT22;3186;54.062;9.962;2023-12-22T03:58:36;4.00;99.90
6307;DHT22;3186;54.062;9.962;2023-12-22T04:01:02;4.00;99.90
6307;DHT22;3186;54.062;9.962;2023-12-22T04:03:28;4.00;99.90
6307;DHT22;3186;54.062;9.962;2023-12-22T04:05:54;3.90;99.90
6307;DHT22;3186;54.062;9.962;2023-12-22T04:08:19;4.10;99.90
6307;DHT22;3186;54.062;9.962;2023-12-22T04:10:48;4.00;99.90
6307;DHT22;3186;54.062;9.962;2023-12-22T04:13:14;4.00;99.90
6307;DHT22;3186;54.062;9.962;2023-12-22T04:15:40;3.90;99.90
6307;DHT22;3186;54.062;9.962;2023-12-22T04:18:06;4.00;99.90
6307;DHT22;3186;54.062;9.962;2023-12-22T04:20:31;4.00;99.90
6307;DHT22;3186;54.062;9.962;2023-12-22T04:22:57;4.00;99.90
6307;DHT22;3186;54.062;9.962;2023-12-22T04:25:23;4.00;99.90
6307;DHT22;3186;54.062;9.962;2023-12-22T04:27:50;4.00;99.90
6307;DHT22;3186;54.062;9.962;2023-12-22T04:30:16;4.00;99.90
6307;DHT22;3186;54.062;9.962;2023-12-22T04:32:42;3.90;99.90
6307;DHT22;3186;54.062;9.962;2023-12-22T04:35:08;3.80;99.90
6307;DHT22;3186;54.062;9.962;2023-12-22T04:37:33;3.90;99.90
6307;DHT22;3186;54.062;9.962;2023-12-22T04:39:59;3.90;99.90
6307;DHT22;3186;54.062;9.962;2023-12-22T04:42:25;3.80;99.90
6307;DHT22;3186;54.062;9.962;2023-12-22T04:44:51;3.90;99.90
6307;DHT22;3186;54.062;9.962;2023-12-22T04:47:17;4.00;99.90
6307;DHT22;3186;54.062;9.962;2023-12-22T04:49:43;4.00;99.90
6307;DHT22;3186;54.062;9.962;2023-12-22T04:52:09;3.90;99.90
6307;DHT22;3186;54.062;9.962;2023-12-22T04:54:35;3.80;99.90
6307;DHT22;3186;54.062;9.962;2023-12-22T04:57:00;3.80;99.90
6307;DHT22;3186;54.062;9.962;2023-12-22T04:59:26;3.80;99.90
6307;DHT22;3186;54.062;9.962;2023-12-22T05:01:51;3.70;99.90
6307;DHT22;3186;54.062;9.962;2023-12-22T05:04:17;3.70;99.90
6307;DHT22;3186;54.062;9.962;2023-12-22T05:06:43;4.00;99.90
6307;DHT22;3186;54.062;9.962;2023-12-22T05:09:11;3.80;99.90
6307;DHT22;3186;54.062;9.962;2023-12-22T05:11:36;3.80;99.90
6307;DHT22;3186;54.062;9.962;2023-12-22T05:14:02;3.80;99.90
6307;DHT22;3186;54.062;9.962;2023-12-22T05:16:28;3.70;99.90
6307;DHT22;3186;54.062;9.962;2023-12-22T05:18:57;3.70;99.90
6307;DHT22;3186;54.062;9.962;2023-12-22T05:21:23;3.60;99.90
6307;DHT22;3186;54.062;9.962;2023-12-22T05:23:49;3.50;99.90
6307;DHT22;3186;54.062;9.962;2023-12-22T05:26:19;3.70;99.90
6307;DHT22;3186;54.062;9.962;2023-12-22T05:28:45;3.60;99.90
6307;DHT22;3186;54.062;9.962;2023-12-22T05:31:10;3.60;99.90
6307;DHT22;3186;54.062;9.962;2023-12-22T05:33:36;3.60;99.90
6307;DHT22;3186;54.062;9.962;2023-12-22T05:36:02;3.60;99.90
6307;DHT22;3186;54.062;9.962;2023-12-22T05:38:28;3.50;99.90
6307;DHT22;3186;54.062;9.962;2023-12-22T05:40:54;3.70;99.90
6307;DHT22;3186;54.062;9.962;2023-12-22T05:43:20;3.60;99.90
6307;DHT22;3186;54.062;9.962;2023-12-22T05:45:45;3.60;99.90
6307;DHT22;3186;54.062;9.962;2023-12-22T05:48:11;3.50;99.90
6307;DHT22;3186;54.062;9.962;2023-12-22T05:50:36;3.40;99.90
6307;DHT22;3186;54.062;9.962;2023-12-22T05:53:02;3.60;99.90
6307;DHT22;3186;54.062;9.962;2023-12-22T05:55:28;3.60;99.90
6307;DHT22;3186;54.062;9.962;2023-12-22T05:57:55;3.60;99.90
6307;DHT22;3186;54.062;9.962;2023-12-22T06:00:21;3.50;99.90
6307;DHT22;3186;54.062;9.962;2023-12-22T06:02:47;3.40;99.90
6307;DHT22;3186;54.062;9.962;2023-12-22T06:05:12;3.50;99.90
6307;DHT22;3186;54.062;9.962;2023-12-22T06:07:40;3.60;99.90
6307;DHT22;3186;54.062;9.962;2023-12-22T06:10:06;3.70;99.90
6307;DHT22;3186;54.062;9.962;2023-12-22T06:12:32;3.60;99.90
6307;DHT22;3186;54.062;9.962;2023-12-22T06:14:58;3.60;99.90
6307;DHT22;3186;54.062;9.962;2023-12-22T06:17:23;3.60;99.90
6307;DHT22;3186;54.062;9.962;2023-12-22T06:19:49;3.60;99.90
6307;DHT22;3186;54.062;9.962;2023-12-22T06:22:15;3.60;99.90
6307;DHT22;3186;54.062;9.962;2023-12-22T06:24:40;3.60;99.90
6307;DHT22;3186;54.062;9.962;2023-12-22T06:27:06;3.60;99.90
6307;DHT22;3186;54.062;9.962;2023-12-22T06:29:33;3.50;99.90
6307;DHT22;3186;54.062;9.962;2023-12-22T06:31:58;3.60;99.90
6307;DHT22;3186;54.062;9.962;2023-12-22T06:34:24;3.60;99.90
6307;DHT22;3186;54.062;9.962;2023-12-22T06:36:51;3.60;99.90
6307;DHT22;3186;54.062;9.962;2023-12-22T06:39:17;3.50;99.90
6307;DHT22;3186;54.062;9.962;2023-12-22T06:41:42;3.70;99.90
6307;DHT22;3186;54.062;9.962;2023-12-22T06:44:08;3.70;99.90
6307;DHT22;3186;54.062;9.962;2023-12-22T06:46:36;3.60;99.90
6307;DHT22;3186;54.062;9.962;2023-12-22T06:49:01;3.60;99.90
6307;DHT22;3186;54.062;9.962;2023-12-22T06:51:28;3.60;99.90
6307;DHT22;3186;54.062;9.962;2023-12-22T06:53:58;3.60;99.90
6307;DHT22;3186;54.062;9.962;2023-12-22T06:56:27;3.70;99.90
6307;DHT22;3186;54.062;9.962;2023-12-22T06:58:54;3.60;99.90
6307;DHT22;3186;54.062;9.962;2023-12-22T07:01:26;3.60;99.90
6307;DHT22;3186;54.062;9.962;2023-12-22T07:03:52;3.60;99.90
6307;DHT22;3186;54.062;9.962;2023-12-22T07:06:18;3.60;99.90
6307;DHT22;3186;54.062;9.962;2023-12-22T07:08:44;3.70;99.90
6307;DHT22;3186;54.062;9.962;2023-12-22T07:11:30;3.60;99.90
6307;DHT22;3186;54.062;9.962;2023-12-22T07:13:56;3.60;99.90
6307;DHT22;3186;54.062;9.962;2023-12-22T07:16:21;3.40;99.90
6307;DHT22;3186;54.062;9.962;2023-12-22T07:18:47;3.50;99.90
6307;DHT22;3186;54.062;9.962;2023-12-22T07:21:16;3.60;99.90
6307;DHT22;3186;54.062;9.962;2023-12-22T07:23:43;3.60;99.90
6307;DHT22;3186;54.062;9.962;2023-12-22T07:26:10;3.60;99.90
6307;DHT22;3186;54.062;9.962;2023-12-22T07:28:38;3.50;99.90
6307;DHT22;3186;54.062;9.962;2023-12-22T07:31:04;3.40;99.90
6307;DHT22;3186;54.062;9.962;2023-12-22T07:33:31;3.40;99.90
6307;DHT22;3186;54.062;9.962;2023-12-22T07:35:57;3.50;99.90
6307;DHT22;3186;54.062;9.962;2023-12-22T07:38:22;3.60;99.90
6307;DHT22;3186;54.062;9.962;2023-12-22T07:40:48;3.60;99.90
6307;DHT22;3186;54.062;9.962;2023-12-22T07:43:15;3.40;99.90
6307;DHT22;3186;54.062;9.962;2023-12-22T07:45:40;3.50;99.90
6307;DHT22;3186;54.062;9.962;2023-12-22T07:48:06;3.40;99.90
6307;DHT22;3186;54.062;9.962;2023-12-22T07:50:32;3.60;99.90
6307;DHT22;3186;54.062;9.962;2023-12-22T07:52:58;3.50;99.90
6307;DHT22;3186;54.062;9.962;2023-12-22T07:55:24;3.50;99.90
6307;DHT22;3186;54.062;9.962;2023-12-22T07:57:50;3.40;99.90
6307;DHT22;3186;54.062;9.962;2023-12-22T08:00:17;3.50;99.90
6307;DHT22;3186;54.062;9.962;2023-12-22T08:02:42;3.50;99.90
6307;DHT22;3186;54.062;9.962;2023-12-22T08:05:08;3.50;99.90
6307;DHT22;3186;54.062;9.962;2023-12-22T08:07:35;3.60;99.90
6307;DHT22;3186;54.062;9.962;2023-12-22T08:10:01;3.60;99.90
6307;DHT22;3186;54.062;9.962;2023-12-22T08:12:27;3.60;99.90
6307;DHT22;3186;54.062;9.962;2023-12-22T08:14:54;3.50;99.90
6307;DHT22;3186;54.062;9.962;2023-12-22T08:17:19;3.50;99.90
6307;DHT22;3186;54.062;9.962;2023-12-22T08:19:45;3.60;99.90
6307;DHT22;3186;54.062;9.962;2023-12-22T08:22:11;3.50;99.90
6307;DHT22;3186;54.062;9.962;2023-12-22T08:24:38;3.50;99.90
6307;DHT22;3186;54.062;9.962;2023-12-22T08:27:05;3.50;99.90
6307;DHT22;3186;54.062;9.962;2023-12-22T08:29:32;3.50;99.90
6307;DHT22;3186;54.062;9.962;2023-12-22T08:31:58;3.50;99.90
6307;DHT22;3186;54.062;9.962;2023-12-22T08:34:24;3.50;99.90
6307;DHT22;3186;54.062;9.962;2023-12-22T08:36:49;3.60;99.90
6307;DHT22;3186;54.062;9.962;2023-12-22T08:39:15;3.50;99.90
6307;DHT22;3186;54.062;9.962;2023-12-22T08:41:41;3.60;99.90
6307;DHT22;3186;54.062;9.962;2023-12-22T08:44:07;3.60;99.90
6307;DHT22;3186;54.062;9.962;2023-12-22T08:46:34;3.60;99.90
6307;DHT22;3186;54.062;9.962;2023-12-22T08:49:00;3.60;99.90
6307;DHT22;3186;54.062;9.962;2023-12-22T08:51:26;3.60;99.90
6307;DHT22;3186;54.062;9.962;2023-12-22T08:53:53;3.60;99.90
6307;DHT22;3186;54.062;9.962;2023-12-22T08:56:21;3.60;99.90
6307;DHT22;3186;54.062;9.962;2023-12-22T08:58:47;3.60;99.90
6307;DHT22;3186;54.062;9.962;2023-12-22T09:01:17;3.60;99.90
6307;DHT22;3186;54.062;9.962;2023-12-22T09:03:42;3.60;99.90
6307;DHT22;3186;54.062;9.962;2023-12-22T09:06:15;3.60;99.90
6307;DHT22;3186;54.062;9.962;2023-12-22T09:08:41;3.60;99.90
6307;DHT22;3186;54.062;9.962;2023-12-22T09:11:07;3.70;99.90
6307;DHT22;3186;54.062;9.962;2023-12-22T09:13:33;3.70;99.90
6307;DHT22;3186;54.062;9.962;2023-12-22T09:16:01;3.70;99.90
6307;DHT22;3186;54.062;9.962;2023-12-22T09:18:28;3.70;99.90
6307;DHT22;3186;54.062;9.962;2023-12-22T09:20:54;3.70;99.90
6307;DHT22;3186;54.062;9.962;2023-12-22T09:23:19;3.60;99.90
6307;DHT22;3186;54.062;9.962;2023-12-22T09:25:47;3.70;99.90
6307;DHT22;3186;54.062;9.962;2023-12-22T09:28:12;3.70;99.90
6307;DHT22;3186;54.062;9.962;2023-12-22T09:30:38;3.70;99.90
6307;DHT22;3186;54.062;9.962;2023-12-22T09:33:04;3.70;99.90
6307;DHT22;3186;54.062;9.962;2023-12-22T09:35:29;3.70;99.90
6307;DHT22;3186;54.062;9.962;2023-12-22T09:37:55;3.70;99.90
6307;DHT22;3186;54.062;9.962;2023-12-22T09:40:21;3.70;99.90
6307;DHT22;3186;54.062;9.962;2023-12-22T09:42:48;3.80;99.90
6307;DHT22;3186;54.062;9.962;2023-12-22T09:45:16;3.80;99.90
6307;DHT22;3186;54.062;9.962;2023-12-22T09:47:44;3.90;99.90
6307;DHT22;3186;54.062;9.962;2023-12-22T09:50:11;3.80;99.90
6307;DHT22;3186;54.062;9.962;2023-12-22T09:52:40;3.80;99.90
6307;DHT22;3186;54.062;9.962;2023-12-22T09:55:07;3.70;99.90
6307;DHT22;3186;54.062;9.962;2023-12-22T09:57:35;3.80;99.90
6307;DHT22;3186;54.062;9.962;2023-12-22T10:00:02;3.80;99.90
6307;DHT22;3186;54.062;9.962;2023-12-22T10:02:33;3.70;99.90
6307;DHT22;3186;54.062;9.962;2023-12-22T10:05:00;3.80;99.90
6307;DHT22;3186;54.062;9.962;2023-12-22T10:07:26;3.80;99.90
6307;DHT22;3186;54.062;9.962;2023-12-22T10:09:53;3.80;99.90
6307;DHT22;3186;54.062;9.962;2023-12-22T10:12:21;3.80;99.90
6307;DHT22;3186;54.062;9.962;2023-12-22T10:14:47;3.70;99.90
6307;DHT22;3186;54.062;9.962;2023-12-22T10:17:15;3.80;99.90
6307;DHT22;3186;54.062;9.962;2023-12-22T10:19:40;3.80;99.90
6307;DHT22;3186;54.062;9.962;2023-12-22T10:22:06;3.80;99.90
6307;DHT22;3186;54.062;9.962;2023-12-22T10:24:42;3.80;99.90
6307;DHT22;3186;54.062;9.962;2023-12-22T10:27:09;3.80;99.90
6307;DHT22;3186;54.062;9.962;2023-12-22T10:29:35;3.80;99.90
6307;DHT22;3186;54.062;9.962;2023-12-22T10:32:04;3.90;99.90
6307;DHT22;3186;54.062;9.962;2023-12-22T10:34:30;4.00;99.90
6307;DHT22;3186;54.062;9.962;2023-12-22T10:36:57;4.00;99.90
6307;DHT22;3186;54.062;9.962;2023-12-22T10:39:30;4.00;99.90
6307;DHT22;3186;54.062;9.962;2023-12-22T10:41:56;4.00;99.90
6307;DHT22;3186;54.062;9.962;2023-12-22T10:44:26;4.10;99.90
6307;DHT22;3186;54.062;9.962;2023-12-22T10:46:52;4.10;99.90
6307;DHT22;3186;54.062;9.962;2023-12-22T10:49:19;4.20;99.90
6307;DHT22;3186;54.062;9.962;2023-12-22T10:51:45;4.20;99.90
6307;DHT22;3186;54.062;9.962;2023-12-22T10:54:10;4.30;99.90
6307;DHT22;3186;54.062;9.962;2023-12-22T10:56:36;4.40;99.90
6307;DHT22;3186;54.062;9.962;2023-12-22T10:59:02;4.30;99.90
6307;DHT22;3186;54.062;9.962;2023-12-22T11:01:29;4.30;99.90
6307;DHT22;3186;54.062;9.962;2023-12-22T11:03:58;4.40;99.90
6307;DHT22;3186;54.062;9.962;2023-12-22T11:06:27;4.30;99.90
6307;DHT22;3186;54.062;9.962;2023-12-22T11:08:56;4.30;99.90
6307;DHT22;3186;54.062;9.962;2023-12-22T11:11:33;4.30;99.90
6307;DHT22;3186;54.062;9.962;2023-12-22T11:14:02;4.30;99.90
6307;DHT22;3186;54.062;9.962;2023-12-22T11:16:29;4.30;99.90
6307;DHT22;3186;54.062;9.962;2023-12-22T11:18:56;4.40;99.90
6307;DHT22;3186;54.062;9.962;2023-12-22T11:21:23;4.50;99.90
6307;DHT22;3186;54.062;9.962;2023-12-22T11:23:53;4.50;99.90
6307;DHT22;3186;54.062;9.962;2023-12-22T11:26:20;4.40;99.90
6307;DHT22;3186;54.062;9.962;2023-12-22T11:28:48;4.50;99.90
6307;DHT22;3186;54.062;9.962;2023-12-22T11:31:14;4.70;99.90
6307;DHT22;3186;54.062;9.962;2023-12-22T11:33:49;4.60;99.90
6307;DHT22;3186;54.062;9.962;2023-12-22T11:36:17;4.60;99.90
6307;DHT22;3186;54.062;9.962;2023-12-22T11:38:44;4.60;99.90
6307;DHT22;3186;54.062;9.962;2023-12-22T11:41:19;4.50;99.90
6307;DHT22;3186;54.062;9.962;2023-12-22T11:43:47;4.60;99.90
6307;DHT22;3186;54.062;9.962;2023-12-22T11:46:12;4.50;99.90
6307;DHT22;3186;54.062;9.962;2023-12-22T11:48:47;4.50;99.90
6307;DHT22;3186;54.062;9.962;2023-12-22T11:51:14;4.60;99.90
6307;DHT22;3186;54.062;9.962;2023-12-22T11:53:40;4.60;99.90
6307;DHT22;3186;54.062;9.962;2023-12-22T11:56:06;4.60;99.90
6307;DHT22;3186;54.062;9.962;2023-12-22T11:58:40;4.50;99.90
6307;DHT22;3186;54.062;9.962;2023-12-22T12:01:08;4.50;99.90
6307;DHT22;3186;54.062;9.962;2023-12-22T12:03:41;4.60;99.90
6307;DHT22;3186;54.062;9.962;2023-12-22T12:06:13;4.50;99.90
6307;DHT22;3186;54.062;9.962;2023-12-22T12:08:40;4.60;99.90
6307;DHT22;3186;54.062;9.962;2023-12-22T12:11:05;4.50;99.90
6307;DHT22;3186;54.062;9.962;2023-12-22T12:13:33;4.60;99.90
6307;DHT22;3186;54.062;9.962;2023-12-22T12:16:00;4.60;99.90
6307;DHT22;3186;54.062;9.962;2023-12-22T12:18:30;4.60;99.90
6307;DHT22;3186;54.062;9.962;2023-12-22T12:20:57;4.60;99.90
6307;DHT22;3186;54.062;9.962;2023-12-22T12:23:26;4.60;99.90
6307;DHT22;3186;54.062;9.962;2023-12-22T12:25:53;4.60;99.90
6307;DHT22;3186;54.062;9.962;2023-12-22T12:28:25;4.60;99.90
6307;DHT22;3186;54.062;9.962;2023-12-22T12:31:02;4.70;99.90
6307;DHT22;3186;54.062;9.962;2023-12-22T12:33:29;4.70;99.90
6307;DHT22;3186;54.062;9.962;2023-12-22T12:36:03;4.70;99.90
6307;DHT22;3186;54.062;9.962;2023-12-22T12:41:15;4.70;99.90
6307;DHT22;3186;54.062;9.962;2023-12-22T12:43:42;4.70;99.90
6307;DHT22;3186;54.062;9.962;2023-12-22T12:46:10;4.70;99.90
6307;DHT22;3186;54.062;9.962;2023-12-22T12:48:37;4.60;99.90
6307;DHT22;3186;54.062;9.962;2023-12-22T12:51:06;4.60;99.90
6307;DHT22;3186;54.062;9.962;2023-12-22T12:53:32;4.70;99.90
6307;DHT22;3186;54.062;9.962;2023-12-22T12:55:59;4.60;99.90
6307;DHT22;3186;54.062;9.962;2023-12-22T12:58:31;4.60;99.90
6307;DHT22;3186;54.062;9.962;2023-12-22T13:01:04;4.70;99.90
6307;DHT22;3186;54.062;9.962;2023-12-22T13:03:30;3.30;99.90
6307;DHT22;3186;54.062;9.962;2023-12-22T13:06:08;4.60;99.90
6307;DHT22;3186;54.062;9.962;2023-12-22T13:08:34;4.60;99.90
6307;DHT22;3186;54.062;9.962;2023-12-22T13:11:01;4.60;99.90
6307;DHT22;3186;54.062;9.962;2023-12-22T13:13:27;4.60;99.90
6307;DHT22;3186;54.062;9.962;2023-12-22T13:15:53;4.60;99.90
6307;DHT22;3186;54.062;9.962;2023-12-22T13:18:19;4.60;99.90
6307;DHT22;3186;54.062;9.962;2023-12-22T13:20:44;4.60;99.90
6307;DHT22;3186;54.062;9.962;2023-12-22T13:23:10;4.70;99.90
6307;DHT22;3186;54.062;9.962;2023-12-22T13:25:39;4.60;99.90
6307;DHT22;3186;54.062;9.962;2023-12-22T13:28:05;4.60;99.90
6307;DHT22;3186;54.062;9.962;2023-12-22T13:30:37;4.70;99.90
6307;DHT22;3186;54.062;9.962;2023-12-22T13:33:06;4.60;99.90
6307;DHT22;3186;54.062;9.962;2023-12-22T13:35:32;4.60;99.90
6307;DHT22;3186;54.062;9.962;2023-12-22T13:38:01;4.70;99.90
6307;DHT22;3186;54.062;9.962;2023-12-22T13:40:27;4.70;99.90
6307;DHT22;3186;54.062;9.962;2023-12-22T13:42:56;4.70;99.90
6307;DHT22;3186;54.062;9.962;2023-12-22T13:45:28;4.70;99.90
6307;DHT22;3186;54.062;9.962;2023-12-22T13:47:54;4.60;99.90
6307;DHT22;3186;54.062;9.962;2023-12-22T13:50:20;4.70;99.90
6307;DHT22;3186;54.062;9.962;2023-12-22T13:52:49;4.70;99.90
6307;DHT22;3186;54.062;9.962;2023-12-22T13:55:17;4.70;99.90
6307;DHT22;3186;54.062;9.962;2023-12-22T13:57:43;4.60;99.90
6307;DHT22;3186;54.062;9.962;2023-12-22T14:02:45;4.70;99.90
6307;DHT22;3186;54.062;9.962;2023-12-22T14:05:10;4.70;99.90
6307;DHT22;3186;54.062;9.962;2023-12-22T14:07:37;4.70;99.90
6307;DHT22;3186;54.062;9.962;2023-12-22T14:10:06;4.70;99.90
6307;DHT22;3186;54.062;9.962;2023-12-22T14:12:32;4.60;99.90
6307;DHT22;3186;54.062;9.962;2023-12-22T14:14:57;4.70;99.90
6307;DHT22;3186;54.062;9.962;2023-12-22T14:17:23;4.70;99.90
6307;DHT22;3186;54.062;9.962;2023-12-22T14:19:49;5.00;99.90
6307;DHT22;3186;54.062;9.962;2023-12-22T14:22:15;4.60;99.90
6307;DHT22;3186;54.062;9.962;2023-12-22T14:24:41;4.60;99.90
6307;DHT22;3186;54.062;9.962;2023-12-22T14:27:06;4.60;99.90
6307;DHT22;3186;54.062;9.962;2023-12-22T14:29:32;4.50;99.90
6307;DHT22;3186;54.062;9.962;2023-12-22T14:31:58;4.60;99.90
6307;DHT22;3186;54.062;9.962;2023-12-22T14:34:24;4.60;99.90
6307;DHT22;3186;54.062;9.962;2023-12-22T14:36:50;4.60;99.90
6307;DHT22;3186;54.062;9.962;2023-12-22T14:39:16;4.50;99.90
6307;DHT22;3186;54.062;9.962;2023-12-22T14:41:42;4.50;99.90
6307;DHT22;3186;54.062;9.962;2023-12-22T14:44:08;4.60;99.90
6307;DHT22;3186;54.062;9.962;2023-12-22T14:46:40;4.50;99.90
6307;DHT22;3186;54.062;9.962;2023-12-22T14:49:06;4.50;99.90
6307;DHT22;3186;54.062;9.962;2023-12-22T14:51:36;4.50;99.90
6307;DHT22;3186;54.062;9.962;2023-12-22T14:54:03;4.50;99.90
6307;DHT22;3186;54.062;9.962;2023-12-22T14:56:29;4.40;99.90
6307;DHT22;3186;54.062;9.962;2023-12-22T14:58:55;4.40;99.90
6307;DHT22;3186;54.062;9.962;2023-12-22T15:01:20;4.50;99.90
6307;DHT22;3186;54.062;9.962;2023-12-22T15:03:46;4.40;99.90
6307;DHT22;3186;54.062;9.962;2023-12-22T15:06:12;4.50;99.90
6307;DHT22;3186;54.062;9.962;2023-12-22T15:08:38;4.40;99.90
6307;DHT22;3186;54.062;9.962;2023-12-22T15:11:03;4.40;99.90
6307;DHT22;3186;54.062;9.962;2023-12-22T15:13:29;4.40;99.90
6307;DHT22;3186;54.062;9.962;2023-12-22T15:15:54;4.40;99.90
6307;DHT22;3186;54.062;9.962;2023-12-22T15:18:20;4.30;99.90
6307;DHT22;3186;54.062;9.962;2023-12-22T15:20:46;4.40;99.90
6307;DHT22;3186;54.062;9.962;2023-12-22T15:23:11;4.40;99.90
6307;DHT22;3186;54.062;9.962;2023-12-22T15:25:37;4.40;99.90
6307;DHT22;3186;54.062;9.962;2023-12-22T15:28:03;4.30;99.90
6307;DHT22;3186;54.062;9.962;2023-12-22T15:30:29;4.40;99.90
6307;DHT22;3186;54.062;9.962;2023-12-22T15:32:55;4.30;99.90
6307;DHT22;3186;54.062;9.962;2023-12-22T15:35:21;4.30;99.90
6307;DHT22;3186;54.062;9.962;2023-12-22T15:37:48;4.20;99.90
6307;DHT22;3186;54.062;9.962;2023-12-22T15:40:13;4.30;99.90
6307;DHT22;3186;54.062;9.962;2023-12-22T15:42:39;4.20;99.90
6307;DHT22;3186;54.062;9.962;2023-12-22T15:45:05;4.20;99.90
6307;DHT22;3186;54.062;9.962;2023-12-22T15:47:31;4.20;99.90
6307;DHT22;3186;54.062;9.962;2023-12-22T15:49:57;4.20;99.90
6307;DHT22;3186;54.062;9.962;2023-12-22T15:52:22;4.20;99.90
6307;DHT22;3186;54.062;9.962;2023-12-22T15:54:48;4.20;99.90
6307;DHT22;3186;54.062;9.962;2023-12-22T15:57:14;4.20;99.90
6307;DHT22;3186;54.062;9.962;2023-12-22T15:59:41;4.10;99.90
6307;DHT22;3186;54.062;9.962;2023-12-22T16:02:06;4.10;99.90
6307;DHT22;3186;54.062;9.962;2023-12-22T16:04:32;4.10;99.90
6307;DHT22;3186;54.062;9.962;2023-12-22T16:06:58;4.20;99.90
6307;DHT22;3186;54.062;9.962;2023-12-22T16:09:23;4.20;99.90
6307;DHT22;3186;54.062;9.962;2023-12-22T16:11:49;4.20;99.90
6307;DHT22;3186;54.062;9.962;2023-12-22T16:14:15;4.20;99.90
6307;DHT22;3186;54.062;9.962;2023-12-22T16:16:40;4.20;99.90
6307;DHT22;3186;54.062;9.962;2023-12-22T16:19:06;4.20;99.90
6307;DHT22;3186;54.062;9.962;2023-12-22T16:21:31;4.10;99.90
6307;DHT22;3186;54.062;9.962;2023-12-22T16:23:57;4.20;99.90